Time;durP1;ratioP1;P1;durP2;ratioP2;P2;SDS_P1;SDS_P2;PMS_P1;PMS_P2;Temp;Humidity;BMP_temperature;BMP_pressure;BME280_temperature;BME280_humidity;BME280_pressure;Samples;Min_cycle;Max_cycle;Signal;HPM_P1;HPM_P2
2022/01/22 00:00:28;;;;;;;13.52;3.88;;;;;;;6.12;62.80;102831.91;5031081;28;20046;-78
2022/01/22 00:02:53;;;;;;;11.02;3.65;;;;;;;6.25;62.09;102834.00;5028001;28;20056;-78
2022/01/22 00:05:21;;;;;;;10.90;3.50;;;;;;;6.25;62.57;102828.84;5031897;28;20594;-78
2022/01/22 00:07:46;;;;;;;9.50;3.50;;;;;;;6.28;62.83;102827.22;5022602;28;20403;-78
2022/01/22 00:10:14;;;;;;;6.13;3.05;;;;;;;5.79;63.74;102834.31;5034842;28;20049;-78
2022/01/22 00:15:10;;;;;;;7.15;2.85;;;;;;;6.49;62.17;102824.41;5029400;28;20037;-78
2022/01/22 00:17:36;;;;;;;10.73;3.42;;;;;;;6.33;63.02;102819.63;5029809;28;20544;-78
2022/01/22 00:20:03;;;;;;;11.50;3.83;;;;;;;5.90;63.94;102822.63;5030498;28;20045;-78
2022/01/22 00:22:32;;;;;;;6.72;3.47;;;;;;;6.25;63.16;102818.50;5028629;28;20076;-78
2022/01/22 00:25:00;;;;;;;8.98;3.47;;;;;;;6.52;62.75;102811.59;5017332;28;20654;-78
2022/01/22 00:27:26;;;;;;;7.78;3.63;;;;;;;6.30;63.38;102816.97;5026617;28;20045;-78
2022/01/22 00:29:52;;;;;;;8.90;3.80;;;;;;;6.23;63.15;102817.59;5024510;28;20045;-78
2022/01/22 00:32:18;;;;;;;7.30;3.80;;;;;;;6.48;62.30;102813.22;5024737;28;20435;-78
2022/01/22 00:34:44;;;;;;;7.68;4.63;;;;;;;6.27;62.84;102811.72;5027450;28;20037;-78
2022/01/22 00:37:10;;;;;;;11.63;4.15;;;;;;;6.23;63.46;102805.59;5031660;28;20515;-78
2022/01/22 00:39:36;;;;;;;10.65;4.43;;;;;;;6.32;62.93;102812.72;5026265;28;20029;-78
2022/01/22 00:42:08;;;;;;;12.52;3.67;;;;;;;6.02;63.49;102821.31;5024207;28;20095;-78
2022/01/22 00:44:33;;;;;;;8.45;4.53;;;;;;;6.29;62.56;102823.81;5024243;28;20038;-78
2022/01/22 00:47:00;;;;;;;9.98;4.13;;;;;;;6.21;63.15;102827.91;5029082;28;20033;-78
2022/01/22 00:49:26;;;;;;;10.02;4.30;;;;;;;6.06;63.36;102830.00;5027418;28;20037;-78
2022/01/22 00:51:52;;;;;;;10.90;4.55;;;;;;;6.39;63.22;102822.41;5017715;28;20525;-78
2022/01/22 00:54:17;;;;;;;16.17;4.80;;;;;;;5.93;63.78;102823.59;5020336;28;20468;-78
2022/01/22 00:56:42;;;;;;;10.30;3.85;;;;;;;5.91;64.29;102819.22;5023721;28;20021;-78
2022/01/22 00:59:08;;;;;;;11.65;4.03;;;;;;;6.16;64.58;102824.28;5022768;28;20418;-78
2022/01/22 01:01:34;;;;;;;11.93;4.60;;;;;;;6.00;64.57;102830.72;5024925;28;20045;-78
2022/01/22 01:04:02;;;;;;;13.52;3.95;;;;;;;5.63;65.55;102827.78;5021425;28;20494;-78
2022/01/22 01:06:28;;;;;;;7.18;3.53;;;;;;;6.21;64.96;102827.03;5027863;28;20125;-78
2022/01/22 01:08:54;;;;;;;8.45;4.53;;;;;;;6.22;64.43;102833.91;5022709;28;20305;-78
2022/01/22 01:11:21;;;;;;;16.55;4.45;;;;;;;6.27;63.40;102833.25;5026717;28;20544;-78
2022/01/22 01:13:50;;;;;;;13.25;5.80;;;;;;;5.89;65.99;102828.63;5022422;28;20048;-78
2022/01/22 01:32:30;;;;;;;12.02;6.00;;;;;;;6.00;64.49;102822.97;5025898;28;20100;-78
2022/01/22 01:34:57;;;;;;;13.75;5.18;;;;;;;6.21;63.45;102820.16;5031362;28;20036;-79
2022/01/22 01:37:23;;;;;;;14.27;5.28;;;;;;;6.04;63.77;102813.59;5024646;28;20065;-79
2022/01/22 01:39:53;;;;;;;10.82;4.97;;;;;;;6.27;64.05;102815.19;5034542;28;20065;-78
2022/01/22 01:42:27;;;;;;;10.02;5.00;;;;;;;6.30;63.39;102811.81;5026401;28;20045;-79
2022/01/22 01:44:52;;;;;;;12.98;5.35;;;;;;;6.26;64.26;102809.94;5029503;28;20056;-78
2022/01/22 01:47:18;;;;;;;11.25;5.15;;;;;;;6.38;63.43;102800.88;5025761;28;20538;-78
2022/01/22 01:49:45;;;;;;;10.57;4.68;;;;;;;6.35;63.61;102799.91;5027060;28;20034;-78
2022/01/22 01:52:16;;;;;;;12.93;5.65;;;;;;;6.10;64.17;102808.63;5025293;28;20039;-79
2022/01/22 02:00:38;;;;;;;14.90;6.40;;;;;;;6.24;64.25;102804.75;4991838;28;20458;-79
2022/01/22 02:03:05;;;;;;;11.70;4.47;;;;;;;5.99;65.69;102808.31;5022482;28;20111;-78
2022/01/22 02:05:32;;;;;;;10.27;6.22;;;;;;;5.90;65.27;102813.19;5023758;28;20033;-78
2022/01/22 02:07:58;;;;;;;19.00;6.10;;;;;;;6.02;64.61;102803.25;5035078;28;20664;-78
2022/01/22 02:10:27;;;;;;;14.02;5.55;;;;;;;6.25;64.53;102810.78;5022715;28;20061;-78
2022/01/22 02:23:44;;;;;;;9.18;5.35;;;;;;;6.08;65.53;102804.25;5022876;28;20003;-79
2022/01/22 02:26:12;;;;;;;13.70;6.13;;;;;;;5.97;66.15;102812.56;5023089;28;20496;-79
2022/01/22 02:28:38;;;;;;;16.73;6.30;;;;;;;5.94;66.72;102806.44;5023636;28;20042;-79
2022/01/22 02:31:22;;;;;;;12.90;5.72;;;;;;;6.14;65.29;102807.88;5031024;28;20125;-78
2022/01/22 02:34:06;;;;;;;13.13;5.95;;;;;;;6.15;65.53;102801.91;5023840;28;20037;-78
2022/01/22 02:36:39;;;;;;;11.73;5.90;;;;;;;6.22;64.60;102801.25;5029460;28;20033;-78
2022/01/22 02:41:31;;;;;;;13.20;5.90;;;;;;;6.16;65.94;102792.47;5043087;28;20359;-79
2022/01/22 02:43:57;;;;;;;13.88;6.78;;;;;;;5.84;66.76;102801.81;5022937;28;20092;-79
2022/01/22 02:46:25;;;;;;;9.98;5.95;;;;;;;5.87;66.12;102792.47;5023038;28;20046;-79
2022/01/22 02:48:54;;;;;;;12.45;7.32;;;;;;;6.19;65.81;102795.13;5024768;28;20088;-78
2022/01/22 02:51:20;;;;;;;13.13;5.90;;;;;;;6.13;65.03;102797.53;5033822;28;20037;-79
2022/01/22 02:53:48;;;;;;;12.85;7.47;;;;;;;5.54;67.38;102799.16;5028243;28;20061;-79
2022/01/22 02:56:14;;;;;;;14.65;7.40;;;;;;;5.68;66.95;102800.47;5031175;28;20040;-79
2022/01/22 02:58:39;;;;;;;11.52;5.85;;;;;;;5.68;66.75;102786.72;5030596;28;20690;-79
2022/01/22 03:01:05;;;;;;;14.57;6.57;;;;;;;5.68;67.31;102790.16;5026160;28;20155;-78
2022/01/22 03:03:31;;;;;;;14.45;6.50;;;;;;;5.54;68.19;102786.25;5027836;28;20041;-78
2022/01/22 03:05:56;;;;;;;14.20;6.60;;;;;;;5.82;66.70;102777.69;5028496;28;20402;-78
2022/01/22 03:08:27;;;;;;;13.40;7.43;;;;;;;6.01;66.92;102775.69;5027948;28;20483;-78
2022/01/22 03:10:54;;;;;;;11.35;6.50;;;;;;;6.15;65.43;102782.97;5035807;28;20129;-79
2022/01/22 03:14:04;;;;;;;17.00;6.10;;;;;;;5.66;67.30;102784.06;5026889;28;20063;-79
2022/01/22 03:16:16;;;;;;;11.10;6.65;;;;;;;5.88;66.54;102788.19;5040226;28;20044;-79
2022/01/22 03:21:36;;;;;;;12.68;6.35;;;;;;;5.89;67.20;102788.22;5015877;28;20029;-78
2022/01/22 03:29:40;;;;;;;14.18;6.03;;;;;;;5.90;67.04;102791.69;5026851;28;20398;-79
2022/01/22 03:32:10;;;;;;;12.77;6.10;;;;;;;5.91;66.34;102793.44;5026922;28;20032;-79
2022/01/22 03:34:41;;;;;;;17.30;7.55;;;;;;;5.83;66.65;102787.19;5026275;28;20033;-79
2022/01/22 03:37:07;;;;;;;15.73;8.02;;;;;;;5.95;67.35;102793.56;5031760;28;20410;-79
2022/01/22 03:39:33;;;;;;;11.48;7.13;;;;;;;5.76;67.42;102790.38;5042375;28;20392;-79
2022/01/22 03:41:59;;;;;;;15.38;7.97;;;;;;;5.68;68.41;102799.59;5028863;28;20506;-79
2022/01/22 03:44:25;;;;;;;18.35;8.25;;;;;;;5.62;68.63;102795.13;5032225;28;20056;-79
2022/01/22 03:46:50;;;;;;;12.80;7.38;;;;;;;5.57;69.03;102801.81;5029736;28;20034;-79
2022/01/22 03:49:16;;;;;;;19.27;8.52;;;;;;;6.10;66.61;102792.28;5031312;28;20045;-79
2022/01/22 03:51:43;;;;;;;13.88;8.18;;;;;;;6.00;67.08;102792.00;5024910;28;20662;-79
2022/01/22 03:54:09;;;;;;;21.52;7.95;;;;;;;5.93;66.30;102797.81;5028963;28;20029;-79
2022/01/22 03:56:36;;;;;;;17.08;8.45;;;;;;;5.74;68.42;102794.63;5026995;28;20032;-79
2022/01/22 03:59:02;;;;;;;21.23;8.32;;;;;;;5.87;67.68;102797.63;5031907;28;20022;-79
2022/01/22 04:09:01;;;;;;;17.95;8.77;;;;;;;5.65;69.67;102826.16;5031578;28;20489;-79
2022/01/22 04:11:26;;;;;;;14.00;7.95;;;;;;;5.79;69.23;102818.84;5033614;28;20025;-79
2022/01/22 04:13:59;;;;;;;21.80;8.95;;;;;;;5.59;69.93;102807.03;5038982;28;20079;-79
2022/01/22 04:16:24;;;;;;;18.30;8.90;;;;;;;5.79;68.96;102814.56;5033555;28;20069;-79
2022/01/22 04:27:11;;;;;;;20.48;8.98;;;;;;;5.79;68.44;102809.41;5026522;28;20127;-79
2022/01/22 04:29:37;;;;;;;14.57;8.32;;;;;;;5.99;68.20;102799.69;5026816;28;20673;-79
2022/01/22 04:32:04;;;;;;;16.45;8.57;;;;;;;6.31;67.10;102795.47;5028262;28;20152;-79
2022/01/22 04:34:29;;;;;;;20.45;9.50;;;;;;;6.08;67.68;102797.38;5025631;28;20041;-78
2022/01/22 04:36:55;;;;;;;15.05;8.20;;;;;;;6.11;67.28;102783.69;5027693;28;20375;-78
2022/01/22 04:39:22;;;;;;;19.42;9.30;;;;;;;5.80;67.70;102807.72;5028681;28;20033;-79
2022/01/22 04:41:48;;;;;;;16.92;8.15;;;;;;;5.94;67.42;102801.28;5025385;28;20224;-78
2022/01/22 04:44:14;;;;;;;18.80;8.98;;;;;;;5.89;68.08;102795.09;5027116;28;20034;-78
2022/01/22 04:49:14;;;;;;;20.05;8.63;;;;;;;5.78;67.96;102807.66;5029561;28;20514;-79
2022/01/22 04:57:08;;;;;;;17.70;8.27;;;;;;;5.91;67.88;102804.63;5028306;28;20504;-79
2022/01/22 04:59:34;;;;;;;15.45;8.48;;;;;;;6.04;66.83;102805.84;5026941;28;20037;-79
2022/01/22 05:01:59;;;;;;;17.15;9.63;;;;;;;5.85;68.77;102801.88;5025692;28;20504;-79
2022/01/22 05:04:25;;;;;;;18.48;8.38;;;;;;;6.11;67.11;102800.06;5024553;28;20056;-79
2022/01/22 05:06:50;;;;;;;15.43;8.38;;;;;;;5.99;67.03;102800.56;5025828;28;20405;-79
2022/01/22 05:09:16;;;;;;;18.35;8.63;;;;;;;6.12;67.16;102799.25;5025497;28;20117;-79
2022/01/22 05:11:41;;;;;;;20.88;9.18;;;;;;;6.01;68.46;102793.75;5029743;28;20029;-79
2022/01/22 05:14:06;;;;;;;15.50;8.73;;;;;;;6.13;67.29;102795.81;5024632;28;20029;-79
2022/01/22 05:16:32;;;;;;;22.83;8.63;;;;;;;6.12;68.23;102795.78;5031565;28;20120;-79
2022/01/22 05:19:03;;;;;;;17.70;9.80;;;;;;;6.23;67.00;102794.38;5021913;28;20661;-79
2022/01/22 05:21:31;;;;;;;17.77;9.13;;;;;;;6.20;67.36;102795.16;5030699;28;20060;-78
2022/01/22 05:24:03;;;;;;;15.38;8.15;;;;;;;5.98;66.78;102785.03;5023739;28;20057;-78
2022/01/22 05:29:54;;;;;;;14.73;8.68;;;;;;;6.19;66.82;102789.97;5025251;28;20091;-78
2022/01/22 05:39:24;;;;;;;18.65;9.15;;;;;;;5.48;68.73;102799.81;5025786;28;20037;-78
2022/01/22 05:41:50;;;;;;;17.70;8.32;;;;;;;5.86;67.17;102795.00;5023712;28;20033;-78
2022/01/22 05:44:16;;;;;;;19.52;8.98;;;;;;;5.92;66.95;102790.88;5028783;28;20025;-78
2022/01/22 05:46:41;;;;;;;17.63;8.93;;;;;;;5.67;67.82;102798.72;5024785;28;20140;-78
2022/01/22 05:49:07;;;;;;;20.38;9.98;;;;;;;5.70;68.52;102793.66;5025049;28;20052;-78
2022/01/22 05:51:34;;;;;;;18.13;8.93;;;;;;;5.99;67.68;102794.53;5027284;28;20042;-78
2022/01/22 05:54:45;;;;;;;18.10;8.98;;;;;;;5.90;67.48;102802.88;5030505;28;20164;-78
2022/01/22 05:59:39;;;;;;;19.42;9.10;;;;;;;6.10;67.11;102810.34;5029580;28;20044;-78
2022/01/22 06:02:07;;;;;;;19.17;9.88;;;;;;;6.13;66.08;102813.03;5023645;28;20025;-78
2022/01/22 06:04:33;;;;;;;21.35;9.15;;;;;;;6.25;66.55;102815.94;5029636;28;20034;-78
2022/01/22 06:06:59;;;;;;;16.60;9.07;;;;;;;6.34;66.17;102814.50;5024885;28;20449;-78
2022/01/22 06:09:26;;;;;;;18.65;9.98;;;;;;;5.84;68.26;102817.28;5030980;28;20044;-78
2022/01/22 06:12:04;;;;;;;22.20;9.63;;;;;;;6.03;67.49;102812.75;5026426;28;20087;-78
2022/01/22 06:14:30;;;;;;;14.63;8.82;;;;;;;6.03;66.42;102817.03;5025074;28;20061;-78
2022/01/22 06:16:55;;;;;;;21.05;9.73;;;;;;;6.17;66.11;102817.41;5025744;28;20108;-79
2022/01/22 06:19:21;;;;;;;15.82;8.85;;;;;;;6.15;66.11;102826.84;5029419;28;20140;-79
2022/01/22 06:21:48;;;;;;;20.27;9.80;;;;;;;5.60;67.91;102834.53;5027254;28;20037;-79
2022/01/22 06:24:13;;;;;;;17.65;9.23;;;;;;;6.09;66.96;102822.38;5025642;28;20046;-79
2022/01/22 06:26:39;;;;;;;18.77;8.95;;;;;;;5.77;68.26;102831.69;5027118;28;20044;-79
2022/01/22 06:29:05;;;;;;;20.45;9.02;;;;;;;6.11;66.44;102832.72;5028248;28;20421;-79
2022/01/22 06:31:31;;;;;;;21.75;9.65;;;;;;;6.28;66.33;102824.66;5037014;28;20091;-79
2022/01/22 06:33:58;;;;;;;22.08;9.50;;;;;;;6.21;65.81;102839.91;5030612;28;20033;-79
2022/01/22 06:36:25;;;;;;;23.30;9.50;;;;;;;6.32;66.11;102830.78;5031668;28;20449;-79
2022/01/22 06:38:56;;;;;;;20.25;9.88;;;;;;;6.32;66.30;102836.81;5031206;28;20556;-79
2022/01/22 06:44:07;;;;;;;21.00;8.98;;;;;;;6.12;66.87;102843.09;5028376;28;20041;-79
2022/01/22 06:46:33;;;;;;;22.33;10.35;;;;;;;6.34;65.83;102842.91;5049240;28;20043;-79
2022/01/22 06:48:58;;;;;;;18.73;9.80;;;;;;;6.19;66.71;102845.03;5025766;28;20065;-79
2022/01/22 06:51:26;;;;;;;24.05;10.30;;;;;;;6.25;66.45;102850.38;5026790;28;20083;-79
2022/01/22 06:53:53;;;;;;;22.75;9.45;;;;;;;6.13;67.47;102854.31;5030739;28;20065;-79
2022/01/22 06:56:20;;;;;;;22.67;9.63;;;;;;;6.27;66.48;102856.47;5032390;28;20033;-79
2022/01/22 06:58:47;;;;;;;18.95;9.73;;;;;;;6.20;66.86;102849.38;5034137;28;20037;-79
2022/01/22 07:01:12;;;;;;;17.77;9.27;;;;;;;6.23;67.44;102856.31;5031168;28;20038;-79
2022/01/22 07:03:38;;;;;;;20.33;9.90;;;;;;;6.20;67.18;102854.53;5036324;28;20030;-79
2022/01/22 07:06:03;;;;;;;23.65;10.45;;;;;;;6.19;67.82;102862.25;5028227;28;20045;-79
2022/01/22 07:08:29;;;;;;;21.63;10.48;;;;;;;6.26;66.73;102851.25;5026400;28;20054;-79
2022/01/22 07:10:54;;;;;;;19.65;9.68;;;;;;;5.90;68.21;102856.16;5027006;28;20025;-79
2022/01/22 07:13:20;;;;;;;19.55;9.25;;;;;;;6.02;67.90;102862.59;5025137;28;20043;-79
2022/01/22 07:15:45;;;;;;;22.40;10.32;;;;;;;6.24;67.69;102865.81;5028113;28;20056;-79
2022/01/22 07:18:13;;;;;;;19.88;10.10;;;;;;;6.29;67.75;102870.28;5025511;28;20037;-79
2022/01/22 07:20:40;;;;;;;20.67;9.32;;;;;;;6.15;68.05;102874.16;5026668;28;20033;-79
2022/01/22 07:23:17;;;;;;;17.35;10.00;;;;;;;6.31;67.12;102878.06;5031762;28;20538;-79
2022/01/22 07:25:44;;;;;;;20.77;9.35;;;;;;;6.22;67.63;102864.88;5025798;28;20430;-79
2022/01/22 07:28:11;;;;;;;19.55;10.10;;;;;;;6.28;66.83;102875.38;5037324;28;20044;-79
2022/01/22 07:30:38;;;;;;;18.48;9.65;;;;;;;6.34;67.17;102873.00;5025463;28;20029;-79
2022/01/22 07:33:04;;;;;;;17.38;9.98;;;;;;;5.93;68.02;102882.94;5026515;28;20037;-79
2022/01/22 07:35:29;;;;;;;16.95;10.35;;;;;;;6.29;67.04;102879.72;5024561;28;20087;-79
2022/01/22 07:37:55;;;;;;;20.25;9.90;;;;;;;6.20;66.83;102888.06;5029352;28;20072;-79
2022/01/22 07:40:20;;;;;;;27.13;10.70;;;;;;;5.87;68.00;102895.63;5028970;28;20696;-79
2022/01/22 07:42:46;;;;;;;21.35;9.70;;;;;;;6.33;66.87;102890.22;5028557;28;20038;-80
2022/01/22 07:45:11;;;;;;;19.20;9.75;;;;;;;6.41;67.37;102891.31;5028581;28;20056;-79
2022/01/22 07:47:38;;;;;;;19.73;10.57;;;;;;;6.38;66.76;102895.50;5012719;28;20030;-79
2022/01/22 07:50:05;;;;;;;20.58;10.15;;;;;;;6.42;67.73;102895.66;5022318;28;21456;-79
2022/01/22 07:52:30;;;;;;;22.92;10.73;;;;;;;6.18;67.38;102897.47;5018232;28;20041;-79
2022/01/22 07:54:56;;;;;;;25.95;11.45;;;;;;;6.01;68.57;102902.09;5023817;28;20037;-79
2022/01/22 07:57:21;;;;;;;28.13;11.30;;;;;;;6.44;67.00;102896.56;5025594;28;20054;-79
2022/01/22 07:59:47;;;;;;;25.23;11.15;;;;;;;6.07;68.02;102904.00;5009778;28;20049;-79
2022/01/22 08:02:14;;;;;;;22.42;11.50;;;;;;;6.49;66.40;102897.59;5025948;28;20095;-78
2022/01/22 08:04:41;;;;;;;28.83;11.73;;;;;;;6.34;67.61;102901.38;5043274;28;20460;-79
2022/01/22 08:07:08;;;;;;;31.80;12.35;;;;;;;6.18;67.20;102902.66;5030926;28;20048;-79
2022/01/22 08:09:34;;;;;;;25.00;10.98;;;;;;;6.28;67.88;102896.03;5030476;28;20037;-79
2022/01/22 08:11:59;;;;;;;23.52;12.55;;;;;;;6.31;68.01;102893.53;5029030;28;20041;-79
2022/01/22 08:14:25;;;;;;;23.15;12.02;;;;;;;6.42;66.95;102887.91;5028675;28;20048;-78
2022/01/22 08:16:50;;;;;;;19.42;10.77;;;;;;;6.59;65.94;102893.59;5022401;28;20046;-79
2022/01/22 08:19:17;;;;;;;27.70;12.38;;;;;;;6.32;66.85;102888.44;5029045;28;20048;-78
2022/01/22 08:21:44;;;;;;;28.00;11.75;;;;;;;6.34;67.74;102897.09;5026798;28;20033;-78
2022/01/22 08:24:10;;;;;;;24.70;10.88;;;;;;;6.45;66.70;102905.19;5027652;28;20095;-78
2022/01/22 08:26:41;;;;;;;21.13;10.27;;;;;;;6.55;66.55;102907.22;5026674;28;20072;-78
2022/01/22 08:29:06;;;;;;;24.23;11.32;;;;;;;6.39;67.47;102912.75;5030531;28;20037;-79
2022/01/22 08:36:43;;;;;;;;;;;;;;;6.43;67.01;102911.97;5027531;28;20686;-78
2022/01/22 08:39:09;;;;;;;19.60;8.98;;;;;;;6.57;66.85;102914.19;5034917;28;20003;-78
2022/01/22 08:41:35;;;;;;;20.67;11.05;;;;;;;6.35;67.37;102924.69;5028416;28;20482;-78
2022/01/22 08:44:02;;;;;;;20.17;10.43;;;;;;;6.67;66.52;102917.03;5034207;28;20026;-78
2022/01/22 08:46:28;;;;;;;22.17;11.30;;;;;;;6.52;66.50;102925.22;5025691;28;20041;-78
2022/01/22 08:48:54;;;;;;;25.63;11.23;;;;;;;6.46;67.39;102931.03;5028549;28;20038;-78
2022/01/22 08:51:20;;;;;;;24.02;11.18;;;;;;;6.63;66.79;102920.38;5028062;28;20147;-78
2022/01/22 08:53:46;;;;;;;27.83;10.27;;;;;;;6.53;67.11;102920.09;5032670;28;20518;-78
2022/01/22 08:56:12;;;;;;;20.75;10.60;;;;;;;6.49;67.01;102931.16;5025700;28;20029;-78
2022/01/22 08:58:38;;;;;;;25.35;10.70;;;;;;;6.53;66.84;102916.63;5026189;28;20419;-78
2022/01/22 09:01:05;;;;;;;25.92;10.35;;;;;;;6.68;66.94;102927.44;5029705;28;20057;-78
2022/01/22 09:03:31;;;;;;;21.13;9.70;;;;;;;6.50;67.65;102927.75;5028460;28;20191;-78
2022/01/22 09:05:57;;;;;;;20.73;10.55;;;;;;;6.73;66.01;102928.44;5024254;28;20546;-78
2022/01/22 09:08:24;;;;;;;21.42;10.70;;;;;;;6.67;66.80;102917.03;5028330;28;20116;-78
2022/01/22 09:10:50;;;;;;;22.23;10.50;;;;;;;6.60;66.66;102920.28;5024578;28;20506;-78
2022/01/22 09:13:16;;;;;;;21.58;11.57;;;;;;;6.61;67.13;102922.91;5029071;28;20049;-78
2022/01/22 09:15:42;;;;;;;21.42;10.90;;;;;;;6.74;66.66;102925.03;5028414;28;20041;-78
2022/01/22 09:18:08;;;;;;;24.77;11.73;;;;;;;6.68;67.56;102922.25;5027035;28;20056;-78
2022/01/22 09:23:07;;;;;;;24.67;11.77;;;;;;;6.72;66.68;102928.41;5030195;28;20030;-78
2022/01/22 09:25:34;;;;;;;27.70;12.40;;;;;;;6.78;66.78;102932.00;5024469;28;20805;-78
2022/01/22 09:27:59;;;;;;;23.35;12.68;;;;;;;6.69;67.05;102929.19;5026400;28;20458;-78
2022/01/22 09:30:26;;;;;;;28.92;11.90;;;;;;;6.56;67.14;102933.09;5028555;28;20040;-78
2022/01/22 09:32:51;;;;;;;21.92;11.65;;;;;;;6.61;66.86;102927.19;5029922;28;20041;-78
2022/01/22 09:35:17;;;;;;;20.40;11.23;;;;;;;6.47;67.60;102930.25;5022201;28;20040;-78
2022/01/22 09:37:43;;;;;;;23.48;11.48;;;;;;;6.56;67.55;102929.66;5029271;28;20042;-78
2022/01/22 09:40:09;;;;;;;22.30;10.88;;;;;;;6.66;67.50;102930.81;5030262;28;20482;-78
2022/01/22 09:42:35;;;;;;;22.75;10.75;;;;;;;6.80;67.41;102937.22;5026548;28;20044;-78
2022/01/22 09:45:02;;;;;;;26.23;11.38;;;;;;;6.85;66.75;102938.22;5027746;28;20033;-78
2022/01/22 09:47:29;;;;;;;22.58;11.65;;;;;;;6.83;66.56;102945.06;5027617;28;20479;-78
2022/01/22 09:49:55;;;;;;;23.92;12.00;;;;;;;6.73;68.00;102951.66;5028751;28;20061;-78
2022/01/22 09:52:22;;;;;;;27.98;11.93;;;;;;;6.65;67.78;102954.84;5027897;28;20038;-78
2022/01/22 09:54:48;;;;;;;22.05;11.15;;;;;;;6.81;67.51;102949.31;5021555;28;20042;-78
2022/01/22 09:57:14;;;;;;;21.83;10.32;;;;;;;6.87;66.79;102941.75;5022808;28;20045;-78
2022/01/22 09:59:39;;;;;;;23.83;11.85;;;;;;;6.75;68.33;102947.41;5022602;28;20108;-78
2022/01/22 10:02:14;;;;;;;25.27;10.98;;;;;;;6.83;67.98;102942.50;5027334;28;20109;-78
2022/01/22 10:04:42;;;;;;;21.65;10.43;;;;;;;6.95;67.43;102945.44;5037235;28;20080;-78
2022/01/22 10:07:15;;;;;;;23.48;10.35;;;;;;;6.68;68.74;102950.66;5030505;28;20049;-78
2022/01/22 10:09:58;;;;;;;24.75;11.95;;;;;;;6.66;69.05;102956.63;5031772;28;20052;-78
2022/01/22 10:12:26;;;;;;;19.73;10.68;;;;;;;6.97;68.56;102952.38;5029733;28;20103;-78
2022/01/22 10:15:15;;;;;;;21.10;10.90;;;;;;;7.03;67.33;102960.31;5036782;28;20123;-78
2022/01/22 10:17:51;;;;;;;22.50;11.15;;;;;;;6.83;68.72;102964.03;5030000;28;20028;-78
2022/01/22 10:20:32;;;;;;;19.42;9.80;;;;;;;6.89;67.58;102953.88;5030123;28;20104;-78
2022/01/22 10:23:04;;;;;;;18.95;8.95;;;;;;;6.76;68.55;102961.22;5029262;28;20037;-78
2022/01/22 10:25:40;;;;;;;19.88;10.75;;;;;;;6.84;69.11;102960.59;5046035;28;21456;-78
2022/01/22 10:28:09;;;;;;;19.70;9.15;;;;;;;6.79;68.68;102954.44;5043415;28;20044;-78
2022/01/22 10:30:39;;;;;;;18.80;9.40;;;;;;;6.53;69.22;102955.38;5030711;28;20228;-78
2022/01/22 10:33:30;;;;;;;17.42;8.95;;;;;;;6.97;68.10;102948.91;5034491;28;20064;-78
2022/01/22 10:36:31;;;;;;;19.48;9.43;;;;;;;6.98;68.34;102940.34;5021958;28;20115;-78
2022/01/22 10:38:57;;;;;;;18.85;9.05;;;;;;;7.04;68.21;102943.09;4988180;28;20121;-78
2022/01/22 10:41:39;;;;;;;19.27;9.00;;;;;;;6.98;68.33;102937.75;5014174;28;20153;-78
2022/01/22 10:44:09;;;;;;;17.85;9.27;;;;;;;7.09;67.39;102944.09;5023425;28;20041;-78
2022/01/22 10:46:44;;;;;;;18.42;9.10;;;;;;;6.69;69.30;102939.53;5038874;28;20037;-78
2022/01/22 10:49:20;;;;;;;17.52;9.25;;;;;;;6.99;69.65;102945.53;5021033;28;20045;-78
2022/01/22 10:51:45;;;;;;;21.13;9.82;;;;;;;6.61;70.98;102946.13;5027696;28;20069;-78
2022/01/22 10:54:11;;;;;;;18.75;9.38;;;;;;;6.80;71.08;102939.81;5026735;28;20054;-78
2022/01/22 10:56:39;;;;;;;16.90;8.80;;;;;;;6.90;71.16;102947.00;5024242;28;20511;-78
2022/01/22 10:59:10;;;;;;;21.13;9.55;;;;;;;6.76;71.20;102932.81;5020721;28;20025;-78
2022/01/22 11:01:38;;;;;;;21.42;9.50;;;;;;;6.64;71.60;102935.03;5023958;28;20049;-78
2022/01/22 11:04:08;;;;;;;19.17;9.95;;;;;;;6.73;70.75;102940.47;5043012;28;20499;-78
2022/01/22 11:06:34;;;;;;;17.30;9.18;;;;;;;6.71;71.51;102942.13;5025044;28;20088;-78
2022/01/22 11:08:59;;;;;;;17.05;9.35;;;;;;;6.82;71.53;102936.44;5024396;28;20053;-78
2022/01/22 11:11:25;;;;;;;26.15;10.48;;;;;;;6.80;70.93;102943.28;5025496;28;20080;-78
2022/01/22 11:13:51;;;;;;;18.92;9.48;;;;;;;6.53;71.43;102947.63;5027615;28;20033;-78
2022/01/22 11:16:18;;;;;;;23.02;10.35;;;;;;;6.94;69.71;102941.06;5024822;28;20514;-78
2022/01/22 11:18:49;;;;;;;22.83;10.18;;;;;;;6.93;70.42;102940.19;5031752;28;20506;-78
2022/01/22 11:21:18;;;;;;;23.33;10.70;;;;;;;6.75;70.10;102936.22;5024326;28;20037;-78
2022/01/22 11:23:45;;;;;;;24.08;10.63;;;;;;;6.85;70.32;102930.47;5024765;28;20498;-78
2022/01/22 11:26:14;;;;;;;29.05;12.00;;;;;;;6.99;69.85;102926.56;5027091;28;20481;-78
2022/01/22 11:28:42;;;;;;;21.40;10.65;;;;;;;6.92;69.97;102930.72;5032694;28;20041;-78
2022/01/22 11:31:10;;;;;;;22.63;10.05;;;;;;;6.82;69.73;102935.56;5027788;28;20042;-78
2022/01/22 11:33:40;;;;;;;23.13;11.18;;;;;;;7.02;68.99;102934.41;5039140;28;20397;-78
2022/01/22 11:36:13;;;;;;;21.23;10.43;;;;;;;6.83;69.65;102943.38;5027358;28;20089;-78
2022/01/22 11:38:41;;;;;;;19.73;10.80;;;;;;;7.00;69.30;102936.97;5033261;28;20025;-78
2022/01/22 11:41:19;;;;;;;20.95;11.27;;;;;;;7.03;68.88;102936.16;5026446;28;20028;-78
2022/01/22 11:46:45;;;;;;;29.08;12.20;;;;;;;6.73;70.52;102941.34;5018863;28;20038;-78
2022/01/22 11:49:21;;;;;;;20.95;10.35;;;;;;;6.79;69.86;102946.69;5030902;28;20045;-78
2022/01/22 11:51:50;;;;;;;19.48;10.05;;;;;;;7.02;69.00;102944.75;5025110;28;20026;-79
2022/01/22 11:54:17;;;;;;;20.17;10.90;;;;;;;6.85;69.53;102940.81;5024353;28;20599;-78
2022/01/22 11:56:52;;;;;;;21.98;9.75;;;;;;;7.00;68.76;102938.66;5029620;28;20383;-78
2022/01/22 11:59:19;;;;;;;18.20;9.32;;;;;;;6.91;69.48;102938.41;5032444;28;20109;-78
2022/01/22 12:01:54;;;;;;;21.02;10.07;;;;;;;7.03;69.20;102946.50;5026484;28;20053;-78
2022/01/22 12:04:28;;;;;;;;;;;;;;;7.02;68.72;102932.72;5033051;28;20277;-79
2022/01/22 12:07:02;;;;;;;16.42;8.05;;;;;;;7.08;68.01;102935.47;5024610;28;19948;-79
2022/01/22 12:09:35;;;;;;;18.17;9.48;;;;;;;6.94;69.38;102938.50;5025860;28;20107;-79
2022/01/22 12:15:09;;;;;;;19.08;9.20;;;;;;;7.07;68.03;102931.16;5029999;28;20075;-79
2022/01/22 12:18:10;;;;;;;19.70;9.20;;;;;;;7.04;68.81;102925.91;5027916;28;20061;-79
2022/01/22 12:23:09;;;;;;;19.25;8.30;;;;;;;6.97;69.10;102933.41;5025558;28;20041;-79
2022/01/22 12:25:34;;;;;;;19.75;8.75;;;;;;;6.83;68.57;102939.91;5025719;28;20044;-79
2022/01/22 12:28:02;;;;;;;14.45;8.10;;;;;;;7.28;67.17;102932.56;5026609;28;20110;-79
2022/01/22 12:30:34;;;;;;;15.30;8.65;;;;;;;7.28;67.22;102935.16;5024772;28;20049;-79
2022/01/22 12:33:01;;;;;;;20.95;9.55;;;;;;;7.10;69.06;102941.56;5028735;28;20041;-79
2022/01/22 12:35:38;;;;;;;16.98;8.23;;;;;;;7.42;68.10;102934.69;5023866;28;20088;-79
2022/01/22 12:38:32;;;;;;;17.83;9.23;;;;;;;7.20;68.24;102928.91;5021818;28;20022;-79
2022/01/22 12:44:27;;;;;;;19.75;8.50;;;;;;;7.14;68.58;102948.56;5025592;28;20521;-79
2022/01/22 12:46:55;;;;;;;14.18;7.10;;;;;;;7.00;68.89;102946.41;5021761;28;20049;-79
2022/01/22 12:49:22;;;;;;;19.50;8.07;;;;;;;6.75;70.29;102946.56;5025830;28;20048;-79
2022/01/22 12:51:55;;;;;;;15.95;8.57;;;;;;;7.07;69.40;102938.91;5026724;28;20033;-79
2022/01/22 12:54:28;;;;;;;18.92;8.88;;;;;;;6.77;71.08;102942.31;5021190;28;20052;-79
2022/01/22 12:57:11;;;;;;;19.33;8.75;;;;;;;7.01;70.93;102946.47;5025209;28;20037;-79
2022/01/22 13:00:09;;;;;;;17.10;8.43;;;;;;;6.92;71.01;102943.63;5022536;28;20487;-79
2022/01/22 13:02:39;;;;;;;17.25;8.40;;;;;;;6.89;71.61;102942.66;5025468;28;20043;-79
2022/01/22 13:05:05;;;;;;;15.70;8.20;;;;;;;7.03;70.59;102936.16;5021640;28;20055;-79
2022/01/22 13:07:51;;;;;;;15.38;8.30;;;;;;;7.12;70.76;102932.13;5024284;28;20033;-77
2022/01/22 13:10:16;;;;;;;;;;;;;;;7.11;70.85;102929.50;5022519;28;20037;-77
2022/01/22 13:12:44;;;;;;;17.70;8.02;;;;;;;7.09;70.10;102923.41;5045784;28;20472;-77
2022/01/22 13:15:11;;;;;;;19.33;8.85;;;;;;;7.04;70.22;102928.47;5026513;28;20033;-77